Time;durP1;ratioP1;P1;durP2;ratioP2;P2;SDS_P1;SDS_P2;PMS_P1;PMS_P2;Temp;Humidity;BMP_temperature;BMP_pressure;BME280_temperature;BME280_humidity;BME280_pressure;Samples;Min_cycle;Max_cycle;Signal;HPM_P1;HPM_P2
2023/09/05 00:01:51;;;;;;;;;;;14.70;99.90;;;;;;5037765;28;20279;-69
2023/09/05 00:04:17;;;;;;;;;;;14.70;99.90;;;;;;5037328;28;19927;-69
2023/09/05 00:06:42;;;;;;;;;;;14.70;99.90;;;;;;5043187;28;19916;-69
2023/09/05 00:09:08;;;;;;;;;;;14.70;99.90;;;;;;5042349;28;20409;-69
2023/09/05 00:11:34;;;;;;;;;;;14.70;99.90;;;;;;5056534;28;19921;-69
2023/09/05 00:14:00;;;;;;;;;;;14.70;99.90;;;;;;5076860;28;19921;-69
2023/09/05 00:16:26;;;;;;;;;;;14.70;99.90;;;;;;5042260;28;20155;-69
2023/09/05 00:18:52;;;;;;;;;;;14.70;99.90;;;;;;5042436;28;20062;-69
2023/09/05 00:21:18;;;;;;;;;;;14.70;99.90;;;;;;5042883;28;20015;-69
2023/09/05 00:23:44;;;;;;;;;;;14.60;99.90;;;;;;5038388;28;19921;-69
2023/09/05 00:26:10;;;;;;;;;;;14.60;99.90;;;;;;5038603;28;19955;-69
2023/09/05 00:28:35;;;;;;;;;;;14.60;99.90;;;;;;5040788;28;19917;-69
2023/09/05 00:31:01;;;;;;;;;;;14.60;99.90;;;;;;5054413;28;19917;-69
2023/09/05 00:33:30;;;;;;;;;;;14.60;99.90;;;;;;5036222;28;19924;-69
2023/09/05 00:35:56;;;;;;;;;;;14.60;99.90;;;;;;5038108;28;19932;-69
2023/09/05 00:38:24;;;;;;;;;;;14.60;99.90;;;;;;5043549;28;19952;-69
2023/09/05 00:40:50;;;;;;;;;;;14.60;99.90;;;;;;5045800;28;19966;-69
2023/09/05 00:43:20;;;;;;;;;;;14.60;99.90;;;;;;5042954;28;20424;-69
2023/09/05 00:45:52;;;;;;;;;;;14.60;99.90;;;;;;5070821;28;19920;-69
2023/09/05 00:48:18;;;;;;;;;;;14.60;99.90;;;;;;5038358;28;20022;-69
2023/09/05 00:50:45;;;;;;;;;;;14.60;99.90;;;;;;5036913;28;19916;-69
2023/09/05 00:53:11;;;;;;;;;;;14.60;99.90;;;;;;5038317;28;19924;-69
2023/09/05 00:55:37;;;;;;;;;;;14.60;99.90;;;;;;5036932;28;20280;-69
2023/09/05 00:58:03;;;;;;;;;;;14.60;99.90;;;;;;5065885;28;20290;-69
2023/09/05 01:00:28;;;;;;;;;;;14.50;99.90;;;;;;5036152;28;19920;-69
2023/09/05 01:02:54;;;;;;;;;;;14.50;99.90;;;;;;5038509;28;19974;-69
2023/09/05 01:05:24;;;;;;;;;;;14.50;99.90;;;;;;5040316;28;20325;-69
2023/09/05 01:08:03;;;;;;;;;;;14.50;99.90;;;;;;5037802;28;20287;-69
2023/09/05 01:10:31;;;;;;;;;;;14.40;99.90;;;;;;5068041;28;19925;-69
2023/09/05 01:13:00;;;;;;;;;;;14.50;99.90;;;;;;5035449;28;19920;-69
2023/09/05 01:15:25;;;;;;;;;;;14.40;99.90;;;;;;5068860;28;20331;-69
2023/09/05 01:17:54;;;;;;;;;;;14.40;99.90;;;;;;5038667;28;19925;-69
2023/09/05 01:20:21;;;;;;;;;;;14.40;99.90;;;;;;5039456;28;20646;-69
2023/09/05 01:22:58;;;;;;;;;;;14.40;99.90;;;;;;5039184;28;19920;-69
2023/09/05 01:25:24;;;;;;;;;;;14.40;99.90;;;;;;5037053;28;19916;-69
2023/09/05 01:27:49;;;;;;;;;;;14.40;99.90;;;;;;5035500;28;19943;-69
2023/09/05 01:30:15;;;;;;;;;;;14.40;99.90;;;;;;5038684;28;19921;-69
2023/09/05 01:32:41;;;;;;;;;;;14.40;99.90;;;;;;5034216;28;19920;-69
2023/09/05 01:35:07;;;;;;;;;;;14.40;99.90;;;;;;5037288;28;19929;-69
2023/09/05 01:37:32;;;;;;;;;;;14.40;99.90;;;;;;5033903;28;19920;-69
2023/09/05 01:39:58;;;;;;;;;;;14.40;99.90;;;;;;5036865;28;20313;-69
2023/09/05 01:42:23;;;;;;;;;;;14.30;99.90;;;;;;5036667;28;19931;-69
2023/09/05 01:44:49;;;;;;;;;;;14.30;99.90;;;;;;5040273;28;20391;-69
2023/09/05 01:47:14;;;;;;;;;;;14.30;99.90;;;;;;5032114;28;19920;-69
2023/09/05 01:49:40;;;;;;;;;;;14.30;99.90;;;;;;5035722;28;19917;-69
2023/09/05 01:52:05;;;;;;;;;;;14.30;99.90;;;;;;5033686;28;19925;-69
2023/09/05 01:54:31;;;;;;;;;;;14.20;99.90;;;;;;5041741;28;20518;-69
2023/09/05 01:56:56;;;;;;;;;;;14.10;99.90;;;;;;5069516;28;19967;-69
2023/09/05 01:59:22;;;;;;;;;;;14.10;99.90;;;;;;5041571;28;19917;-69
2023/09/05 02:01:47;;;;;;;;;;;14.00;99.90;;;;;;5036988;28;19982;-69
2023/09/05 02:04:13;;;;;;;;;;;14.00;99.90;;;;;;5069492;28;20018;-69
2023/09/05 02:06:39;;;;;;;;;;;14.00;99.90;;;;;;5035491;28;19978;-69
2023/09/05 02:09:05;;;;;;;;;;;14.00;99.90;;;;;;5039815;28;19920;-69
2023/09/05 02:11:30;;;;;;;;;;;13.90;99.90;;;;;;5034807;28;20364;-69
2023/09/05 02:13:56;;;;;;;;;;;13.90;99.90;;;;;;5040259;28;19925;-69
2023/09/05 02:16:23;;;;;;;;;;;13.90;99.90;;;;;;5038163;28;19928;-68
2023/09/05 02:18:49;;;;;;;;;;;13.90;99.90;;;;;;5039693;28;19917;-68
2023/09/05 02:21:15;;;;;;;;;;;14.00;99.90;;;;;;5040317;28;19920;-68
2023/09/05 02:23:40;;;;;;;;;;;13.90;99.90;;;;;;5038924;28;19927;-68
2023/09/05 02:26:07;;;;;;;;;;;13.90;99.90;;;;;;5043596;28;19925;-68
2023/09/05 02:28:32;;;;;;;;;;;13.90;99.90;;;;;;5071387;28;19928;-68
2023/09/05 02:30:58;;;;;;;;;;;13.90;99.90;;;;;;5073883;28;19917;-68
2023/09/05 02:33:23;;;;;;;;;;;13.80;99.90;;;;;;5040329;28;20375;-68
2023/09/05 02:35:49;;;;;;;;;;;13.80;99.90;;;;;;5043137;28;19932;-68
2023/09/05 02:38:14;;;;;;;;;;;13.80;99.90;;;;;;5039307;28;19917;-68
2023/09/05 02:40:44;;;;;;;;;;;13.80;99.90;;;;;;5042101;28;19925;-69
2023/09/05 02:43:09;;;;;;;;;;;13.80;99.90;;;;;;5044716;28;19970;-69
2023/09/05 02:45:35;;;;;;;;;;;13.80;99.90;;;;;;5044220;28;19917;-69
2023/09/05 02:48:00;;;;;;;;;;;13.80;99.90;;;;;;5046328;28;20367;-69
2023/09/05 02:50:26;;;;;;;;;;;13.80;99.90;;;;;;5046931;28;19925;-69
2023/09/05 02:52:51;;;;;;;;;;;13.80;99.90;;;;;;5040286;28;20360;-69
2023/09/05 02:55:17;;;;;;;;;;;13.80;99.90;;;;;;5046786;28;19928;-69
2023/09/05 02:57:42;;;;;;;;;;;13.80;99.90;;;;;;5039574;28;20022;-69
2023/09/05 03:00:10;;;;;;;;;;;13.80;99.90;;;;;;5043500;28;20278;-69
2023/09/05 03:02:37;;;;;;;;;;;13.80;99.90;;;;;;5042438;28;20039;-68
2023/09/05 03:05:05;;;;;;;;;;;13.80;99.90;;;;;;5038105;28;19943;-68
2023/09/05 03:07:31;;;;;;;;;;;13.80;99.90;;;;;;5040742;28;19920;-68
2023/09/05 03:09:56;;;;;;;;;;;13.70;99.90;;;;;;5073562;28;19936;-68
2023/09/05 03:12:22;;;;;;;;;;;13.70;99.90;;;;;;5040389;28;19924;-68
2023/09/05 03:14:47;;;;;;;;;;;13.70;99.90;;;;;;5046386;28;19935;-69
2023/09/05 03:17:13;;;;;;;;;;;13.60;99.90;;;;;;5044666;28;20413;-68
2023/09/05 03:19:39;;;;;;;;;;;13.70;99.90;;;;;;5031823;28;19939;-68
2023/09/05 03:22:05;;;;;;;;;;;13.70;99.90;;;;;;5027799;28;19967;-69
2023/09/05 03:24:30;;;;;;;;;;;13.60;99.90;;;;;;5047332;28;19916;-68
2023/09/05 03:26:56;;;;;;;;;;;13.70;99.90;;;;;;5042283;28;19931;-68
2023/09/05 03:29:21;;;;;;;;;;;13.70;99.90;;;;;;5045500;28;19924;-68
2023/09/05 03:31:47;;;;;;;;;;;13.70;99.90;;;;;;5073092;28;19974;-68
2023/09/05 03:34:12;;;;;;;;;;;13.70;99.90;;;;;;5040738;28;20015;-68
2023/09/05 03:36:38;;;;;;;;;;;13.70;99.90;;;;;;5073921;28;20674;-69
2023/09/05 03:39:03;;;;;;;;;;;13.70;99.90;;;;;;5040178;28;19927;-68
2023/09/05 03:41:30;;;;;;;;;;;13.70;99.90;;;;;;5044061;28;19923;-69
2023/09/05 03:43:55;;;;;;;;;;;13.60;99.90;;;;;;5039984;28;20294;-68
2023/09/05 03:46:21;;;;;;;;;;;13.70;99.90;;;;;;5041360;28;19924;-69
2023/09/05 03:48:48;;;;;;;;;;;13.60;99.90;;;;;;5042665;28;19921;-68
2023/09/05 03:51:13;;;;;;;;;;;13.60;99.90;;;;;;5044115;28;19917;-68
2023/09/05 03:53:38;;;;;;;;;;;13.70;99.90;;;;;;5042033;28;20013;-68
2023/09/05 03:56:04;;;;;;;;;;;13.70;99.90;;;;;;5043010;28;19939;-69
2023/09/05 03:58:30;;;;;;;;;;;13.70;99.90;;;;;;5041251;28;20295;-68
2023/09/05 04:00:57;;;;;;;;;;;13.70;99.90;;;;;;5042651;28;19924;-68
2023/09/05 04:03:22;;;;;;;;;;;13.60;99.90;;;;;;5041712;28;19921;-68
2023/09/05 04:05:48;;;;;;;;;;;13.60;99.90;;;;;;5043808;28;19917;-68
2023/09/05 04:08:13;;;;;;;;;;;13.60;99.90;;;;;;5045959;28;19925;-69
2023/09/05 04:10:39;;;;;;;;;;;13.60;99.90;;;;;;5050724;28;19924;-69
2023/09/05 04:13:04;;;;;;;;;;;13.60;99.90;;;;;;5041135;28;19968;-69
2023/09/05 04:15:30;;;;;;;;;;;13.60;99.90;;;;;;5077601;28;20302;-69
2023/09/05 04:17:55;;;;;;;;;;;13.60;99.90;;;;;;5043851;28;19916;-69
2023/09/05 04:20:21;;;;;;;;;;;13.60;99.90;;;;;;5045764;28;19921;-69
2023/09/05 04:22:46;;;;;;;;;;;13.60;99.90;;;;;;5039738;28;20390;-69
2023/09/05 04:25:12;;;;;;;;;;;13.60;99.90;;;;;;5043611;28;19923;-68
2023/09/05 04:27:37;;;;;;;;;;;13.60;99.90;;;;;;5041945;28;20379;-68
2023/09/05 04:30:03;;;;;;;;;;;13.60;99.90;;;;;;5044744;28;19932;-69
2023/09/05 04:32:31;;;;;;;;;;;13.60;99.90;;;;;;5044956;28;20406;-69
2023/09/05 04:34:57;;;;;;;;;;;13.60;99.90;;;;;;5033743;28;19925;-68
2023/09/05 04:37:23;;;;;;;;;;;13.60;99.90;;;;;;5045373;28;19939;-68
2023/09/05 04:39:48;;;;;;;;;;;13.60;99.90;;;;;;5049476;28;19917;-68
2023/09/05 04:42:14;;;;;;;;;;;13.60;99.90;;;;;;5045307;28;19917;-68
2023/09/05 04:44:40;;;;;;;;;;;13.60;99.90;;;;;;5042387;28;19932;-68
2023/09/05 04:47:24;;;;;;;;;;;13.60;99.90;;;;;;5038894;28;19960;-68
2023/09/05 04:49:50;;;;;;;;;;;13.60;99.90;;;;;;5044549;28;19916;-69
2023/09/05 04:52:16;;;;;;;;;;;13.50;99.90;;;;;;5043629;28;19931;-69
2023/09/05 04:54:42;;;;;;;;;;;13.50;99.90;;;;;;5050618;28;19923;-68
2023/09/05 04:57:10;;;;;;;;;;;13.60;99.90;;;;;;5029717;28;19917;-69
2023/09/05 04:59:36;;;;;;;;;;;13.50;99.90;;;;;;5083179;28;19971;-68
2023/09/05 05:02:01;;;;;;;;;;;13.60;99.90;;;;;;5048318;28;19917;-68
2023/09/05 05:04:27;;;;;;;;;;;13.60;99.90;;;;;;5046311;28;19925;-69
2023/09/05 05:06:52;;;;;;;;;;;13.60;99.90;;;;;;5047602;28;20386;-68
2023/09/05 05:09:18;;;;;;;;;;;13.60;99.90;;;;;;5044668;28;19916;-68
2023/09/05 05:11:43;;;;;;;;;;;13.60;99.90;;;;;;5078053;28;19925;-68
2023/09/05 05:14:08;;;;;;;;;;;13.70;99.90;;;;;;5048644;28;20276;-68
2023/09/05 05:16:34;;;;;;;;;;;13.60;99.90;;;;;;5045084;28;19968;-67
2023/09/05 05:18:59;;;;;;;;;;;13.70;99.90;;;;;;5046343;28;19920;-69
2023/09/05 05:21:25;;;;;;;;;;;13.70;99.90;;;;;;5039171;28;19920;-68
2023/09/05 05:23:50;;;;;;;;;;;13.70;99.90;;;;;;5041798;28;20268;-69
2023/09/05 05:26:16;;;;;;;;;;;13.70;99.90;;;;;;5038472;28;20423;-69
2023/09/05 05:28:42;;;;;;;;;;;13.80;99.90;;;;;;5037784;28;19916;-68
2023/09/05 05:31:12;;;;;;;;;;;13.80;99.90;;;;;;5042219;28;19920;-69
2023/09/05 05:33:37;;;;;;;;;;;13.80;99.90;;;;;;5039748;28;19928;-68
2023/09/05 05:36:03;;;;;;;;;;;13.90;99.90;;;;;;5042294;28;19924;-68
2023/09/05 05:38:28;;;;;;;;;;;13.90;99.90;;;;;;5043053;28;19924;-69
2023/09/05 05:40:54;;;;;;;;;;;14.00;99.90;;;;;;5040004;28;20024;-69
2023/09/05 05:43:20;;;;;;;;;;;14.00;99.90;;;;;;5038502;28;20363;-68
2023/09/05 05:45:47;;;;;;;;;;;14.10;99.90;;;;;;5022363;28;19920;-68
2023/09/05 05:48:13;;;;;;;;;;;14.10;99.90;;;;;;5039183;28;19927;-68
2023/09/05 05:50:38;;;;;;;;;;;14.10;99.90;;;;;;5042743;28;19920;-68
2023/09/05 05:53:04;;;;;;;;;;;14.20;99.90;;;;;;5042353;28;19920;-68
2023/09/05 05:55:29;;;;;;;;;;;14.20;99.90;;;;;;5047490;28;19928;-69
2023/09/05 05:57:55;;;;;;;;;;;14.30;99.90;;;;;;5047439;28;20311;-68
2023/09/05 06:00:20;;;;;;;;;;;14.30;99.90;;;;;;5050306;28;19917;-68
2023/09/05 06:02:46;;;;;;;;;;;14.40;99.90;;;;;;5046988;28;19921;-69
2023/09/05 06:05:11;;;;;;;;;;;14.40;99.90;;;;;;5050093;28;20085;-69
2023/09/05 06:07:37;;;;;;;;;;;14.50;99.90;;;;;;5044877;28;19924;-68
2023/09/05 06:10:02;;;;;;;;;;;14.60;99.90;;;;;;5049259;28;19967;-68
2023/09/05 06:12:28;;;;;;;;;;;14.60;99.90;;;;;;5043745;28;20311;-69
2023/09/05 06:14:53;;;;;;;;;;;14.70;99.90;;;;;;5049819;28;19920;-68
2023/09/05 06:17:19;;;;;;;;;;;14.80;99.90;;;;;;5044897;28;19918;-69
2023/09/05 06:19:44;;;;;;;;;;;14.80;99.90;;;;;;5050339;28;20391;-69
2023/09/05 06:22:10;;;;;;;;;;;14.90;99.90;;;;;;5045584;28;19923;-70
2023/09/05 06:24:35;;;;;;;;;;;15.00;99.90;;;;;;5045919;28;19974;-69
2023/09/05 06:27:01;;;;;;;;;;;15.10;99.90;;;;;;5049595;28;20287;-70
2023/09/05 06:29:26;;;;;;;;;;;15.20;99.90;;;;;;5041944;28;19921;-69
2023/09/05 06:31:52;;;;;;;;;;;15.30;99.90;;;;;;5045108;28;19920;-69
2023/09/05 06:34:17;;;;;;;;;;;15.40;99.90;;;;;;5047490;28;19916;-69
2023/09/05 06:36:43;;;;;;;;;;;15.50;99.90;;;;;;5045637;28;19920;-69
2023/09/05 06:39:08;;;;;;;;;;;15.60;99.90;;;;;;5045956;28;19920;-70
2023/09/05 06:41:35;;;;;;;;;;;15.70;99.90;;;;;;5044894;28;19927;-70
2023/09/05 06:44:00;;;;;;;;;;;15.80;99.90;;;;;;5046091;28;20015;-70
2023/09/05 06:46:26;;;;;;;;;;;16.00;99.90;;;;;;5047087;28;20011;-70
2023/09/05 06:48:51;;;;;;;;;;;16.10;99.90;;;;;;5040635;28;20363;-71
2023/09/05 06:51:17;;;;;;;;;;;16.20;99.90;;;;;;5048729;28;19927;-70
2023/09/05 06:53:42;;;;;;;;;;;16.40;99.90;;;;;;5045084;28;19916;-71
2023/09/05 06:56:08;;;;;;;;;;;16.50;99.90;;;;;;5030476;28;20380;-71
2023/09/05 06:58:33;;;;;;;;;;;16.60;99.90;;;;;;5047097;28;19971;-71
2023/09/05 07:01:03;;;;;;;;;;;16.70;99.90;;;;;;5048318;28;19959;-71
2023/09/05 07:03:29;;;;;;;;;;;16.90;99.90;;;;;;5048116;28;19917;-71
2023/09/05 07:05:54;;;;;;;;;;;17.00;99.90;;;;;;5048011;28;20310;-72
2023/09/05 07:08:20;;;;;;;;;;;17.20;99.90;;;;;;5045482;28;20376;-71
2023/09/05 07:10:47;;;;;;;;;;;17.30;99.90;;;;;;5051605;28;19921;-71
2023/09/05 07:13:13;;;;;;;;;;;17.40;99.90;;;;;;5081812;28;19923;-72
2023/09/05 07:15:39;;;;;;;;;;;17.50;99.90;;;;;;5051624;28;19925;-72
2023/09/05 07:18:04;;;;;;;;;;;17.60;99.90;;;;;;5050017;28;19916;-71
2023/09/05 07:20:31;;;;;;;;;;;17.70;99.90;;;;;;5053149;28;19924;-71
2023/09/05 07:22:56;;;;;;;;;;;17.90;99.90;;;;;;5047087;28;20267;-71
2023/09/05 07:25:22;;;;;;;;;;;18.00;99.90;;;;;;5049562;28;19917;-71
2023/09/05 07:27:47;;;;;;;;;;;18.10;99.90;;;;;;5048198;28;20399;-71
2023/09/05 07:30:14;;;;;;;;;;;18.20;99.90;;;;;;5051682;28;19928;-71
2023/09/05 07:32:39;;;;;;;;;;;18.30;99.90;;;;;;5041951;28;19917;-70
2023/09/05 07:35:05;;;;;;;;;;;18.40;99.90;;;;;;5051850;28;19939;-70
2023/09/05 07:37:30;;;;;;;;;;;18.50;99.90;;;;;;5050336;28;20428;-71
2023/09/05 07:39:56;;;;;;;;;;;18.60;99.90;;;;;;5047197;28;20375;-71
2023/09/05 07:42:21;;;;;;;;;;;18.70;99.90;;;;;;5048902;28;19917;-71
2023/09/05 07:44:47;;;;;;;;;;;18.80;99.90;;;;;;5051011;28;19963;-71
2023/09/05 07:47:12;;;;;;;;;;;18.90;99.90;;;;;;5052333;28;20326;-71
2023/09/05 07:49:39;;;;;;;;;;;19.00;99.90;;;;;;5044809;28;20274;-71
2023/09/05 07:52:05;;;;;;;;;;;19.10;99.90;;;;;;5051557;28;20334;-70
2023/09/05 07:54:30;;;;;;;;;;;19.30;99.90;;;;;;5047741;28;19921;-70
2023/09/05 07:56:56;;;;;;;;;;;19.40;99.90;;;;;;5049681;28;20011;-70
2023/09/05 07:59:23;;;;;;;;;;;19.50;99.90;;;;;;5047798;28;19925;-70
2023/09/05 08:01:48;;;;;;;;;;;19.70;99.90;;;;;;5049803;28;20353;-70
2023/09/05 08:04:14;;;;;;;;;;;19.80;99.90;;;;;;5045270;28;19920;-70
2023/09/05 08:06:39;;;;;;;;;;;19.90;99.90;;;;;;5046312;28;19925;-70
2023/09/05 08:09:05;;;;;;;;;;;20.00;99.90;;;;;;5050346;28;20399;-70
2023/09/05 08:11:30;;;;;;;;;;;20.10;99.90;;;;;;5050040;28;19944;-70
2023/09/05 08:13:56;;;;;;;;;;;20.20;99.90;;;;;;5048979;28;19917;-70
2023/09/05 08:16:21;;;;;;;;;;;20.30;99.90;;;;;;5042220;28;20019;-70
2023/09/05 08:18:47;;;;;;;;;;;20.40;99.90;;;;;;5048014;28;19921;-70
2023/09/05 08:21:12;;;;;;;;;;;20.50;99.90;;;;;;5050212;28;19921;-70
2023/09/05 08:23:38;;;;;;;;;;;20.60;99.90;;;;;;5048452;28;19916;-70
2023/09/05 08:26:04;;;;;;;;;;;20.70;99.90;;;;;;5047347;28;20326;-70
2023/09/05 08:28:32;;;;;;;;;;;20.80;99.90;;;;;;5043748;28;20387;-70
2023/09/05 08:31:02;;;;;;;;;;;21.00;99.90;;;;;;5042691;28;19934;-70
2023/09/05 08:33:29;;;;;;;;;;;21.00;99.90;;;;;;5042927;28;20282;-70
2023/09/05 08:35:54;;;;;;;;;;;21.10;99.90;;;;;;5043177;28;19927;-70
2023/09/05 08:38:20;;;;;;;;;;;21.30;99.90;;;;;;5043708;28;19925;-70
2023/09/05 08:40:46;;;;;;;;;;;21.40;99.90;;;;;;5047424;28;19951;-70
2023/09/05 08:43:12;;;;;;;;;;;21.50;99.90;;;;;;5047527;28;19956;-70
2023/09/05 08:45:39;;;;;;;;;;;21.60;99.90;;;;;;5048721;28;19925;-70
2023/09/05 08:48:04;;;;;;;;;;;21.80;99.90;;;;;;5048623;28;20341;-70
2023/09/05 08:50:30;;;;;;;;;;;21.90;99.90;;;;;;5046617;28;19921;-70
2023/09/05 08:52:57;;;;;;;;;;;22.00;99.90;;;;;;5047450;28;19970;-70
2023/09/05 08:55:23;;;;;;;;;;;22.10;99.90;;;;;;5049036;28;20267;-70
2023/09/05 08:57:49;;;;;;;;;;;22.20;99.90;;;;;;5048886;28;19924;-70
2023/09/05 09:00:18;;;;;;;;;;;22.30;99.90;;;;;;5048210;28;20290;-70
2023/09/05 09:02:44;;;;;;;;;;;22.40;99.90;;;;;;5046809;28;19917;-70
2023/09/05 09:05:09;;;;;;;;;;;22.40;99.90;;;;;;5046995;28;20398;-70
2023/09/05 09:07:35;;;;;;;;;;;22.50;99.90;;;;;;5047081;28;20391;-70
2023/09/05 09:10:15;;;;;;;;;;;22.60;99.90;;;;;;5048486;28;19940;-70
2023/09/05 09:12:41;;;;;;;;;;;22.70;99.90;;;;;;5047136;28;19956;-70
2023/09/05 09:15:09;;;;;;;;;;;22.80;99.90;;;;;;5048298;28;19924;-70
2023/09/05 09:17:48;;;;;;;;;;;22.90;99.90;;;;;;5048552;28;19921;-70
2023/09/05 09:20:14;;;;;;;;;;;23.00;99.90;;;;;;5048375;28;19917;-70
2023/09/05 09:22:40;;;;;;;;;;;23.10;99.90;;;;;;5048664;28;19924;-71
2023/09/05 09:25:20;;;;;;;;;;;23.10;99.90;;;;;;5047469;28;19916;-70
2023/09/05 09:27:53;;;;;;;;;;;23.20;99.90;;;;;;5046146;28;19925;-70
2023/09/05 09:30:23;;;;;;;;;;;23.30;99.90;;;;;;5047350;28;19974;-70
2023/09/05 09:32:52;;;;;;;;;;;23.30;99.90;;;;;;5049608;28;19924;-70
2023/09/05 09:35:18;;;;;;;;;;;23.40;99.90;;;;;;5043447;28;20022;-70
2023/09/05 09:37:47;;;;;;;;;;;23.50;99.90;;;;;;5050017;28;19916;-70
2023/09/05 09:40:16;;;;;;;;;;;23.50;99.90;;;;;;5046535;28;19917;-69
2023/09/05 09:42:45;;;;;;;;;;;23.60;99.90;;;;;;5048267;28;19952;-70
2023/09/05 09:45:11;;;;;;;;;;;23.60;99.90;;;;;;5049701;28;19916;-69
2023/09/05 09:47:39;;;;;;;;;;;23.70;99.90;;;;;;5045710;28;20015;-69
2023/09/05 09:50:05;;;;;;;;;;;23.80;99.90;;;;;;5050010;28;19923;-69
2023/09/05 09:52:34;;;;;;;;;;;23.80;99.90;;;;;;5045051;28;19924;-70
2023/09/05 09:55:01;;;;;;;;;;;23.90;99.90;;;;;;5049741;28;20003;-70
2023/09/05 09:57:30;;;;;;;;;;;23.90;99.90;;;;;;5040768;28;20399;-70
2023/09/05 09:59:58;;;;;;;;;;;24.00;99.90;;;;;;5029518;28;20021;-69
2023/09/05 10:02:24;;;;;;;;;;;24.00;99.90;;;;;;5038262;28;19917;-70
2023/09/05 10:04:51;;;;;;;;;;;24.10;99.90;;;;;;5049675;28;19923;-70
2023/09/05 10:07:16;;;;;;;;;;;24.20;99.90;;;;;;5045784;28;20299;-70
2023/09/05 10:09:43;;;;;;;;;;;24.20;99.90;;;;;;5046446;28;19924;-69
2023/09/05 10:12:08;;;;;;;;;;;24.20;99.90;;;;;;5045780;28;19920;-70
2023/09/05 10:14:35;;;;;;;;;;;24.30;99.90;;;;;;5047412;28;20402;-69
2023/09/05 10:17:01;;;;;;;;;;;24.40;99.90;;;;;;5047205;28;19921;-69
2023/09/05 10:19:28;;;;;;;;;;;24.40;99.90;;;;;;5047746;28;20216;-69
2023/09/05 10:21:55;;;;;;;;;;;24.50;99.90;;;;;;5047229;28;19916;-69
2023/09/05 10:24:22;;;;;;;;;;;24.50;99.90;;;;;;5045188;28;19921;-69
2023/09/05 10:26:48;;;;;;;;;;;24.60;99.90;;;;;;5049142;28;19925;-69
2023/09/05 10:29:33;;;;;;;;;;;24.60;99.90;;;;;;5047882;28;20378;-70
2023/09/05 10:31:58;;;;;;;;;;;24.60;99.90;;;;;;5036490;28;19956;-69
2023/09/05 10:34:58;;;;;;;;;;;24.60;99.90;;;;;;5046420;28;19956;-69
2023/09/05 10:37:32;;;;;;;;;;;24.70;99.90;;;;;;5046982;28;19920;-69
2023/09/05 10:40:06;;;;;;;;;;;24.70;99.90;;;;;;5046451;28;19923;-69
2023/09/05 10:42:32;;;;;;;;;;;24.80;99.90;;;;;;5042363;28;19921;-69
2023/09/05 10:44:59;;;;;;;;;;;24.90;99.90;;;;;;5032529;28;19920;-70
2023/09/05 10:47:33;;;;;;;;;;;24.90;99.90;;;;;;5043978;28;20298;-69
2023/09/05 10:49:59;;;;;;;;;;;24.90;99.90;;;;;;5047380;28;19917;-69
2023/09/05 10:52:27;;;;;;;;;;;25.00;99.90;;;;;;5044573;28;20025;-69
2023/09/05 10:54:53;;;;;;;;;;;25.00;99.90;;;;;;5061512;28;19951;-69
2023/09/05 10:57:34;;;;;;;;;;;25.10;99.90;;;;;;5043869;28;19925;-69
2023/09/05 11:00:03;;;;;;;;;;;25.10;99.90;;;;;;5045573;28;20004;-69
2023/09/05 11:02:31;;;;;;;;;;;25.20;99.90;;;;;;5045344;28;20020;-69
2023/09/05 11:04:56;;;;;;;;;;;25.20;99.90;;;;;;5046600;28;19916;-69
2023/09/05 11:07:23;;;;;;;;;;;25.20;99.90;;;;;;5045163;28;19920;-69
2023/09/05 11:09:49;;;;;;;;;;;25.20;99.90;;;;;;5075395;28;20019;-69
2023/09/05 11:12:16;;;;;;;;;;;25.30;99.90;;;;;;5048337;28;19917;-68
2023/09/05 11:14:41;;;;;;;;;;;25.30;99.90;;;;;;5051750;28;19968;-70
2023/09/05 11:17:14;;;;;;;;;;;25.30;99.90;;;;;;5030308;28;19970;-69
2023/09/05 11:19:50;;;;;;;;;;;25.40;99.90;;;;;;5046167;28;19917;-70
2023/09/05 11:22:22;;;;;;;;;;;25.40;99.90;;;;;;5071657;28;19927;-70
2023/09/05 11:24:49;;;;;;;;;;;25.50;99.90;;;;;;5045306;28;19932;-70
2023/09/05 11:27:19;;;;;;;;;;;25.50;99.90;;;;;;5047132;28;21797;-69
2023/09/05 11:29:45;;;;;;;;;;;25.50;99.90;;;;;;5046529;28;19917;-70
2023/09/05 11:32:13;;;;;;;;;;;25.50;99.90;;;;;;5039893;28;19924;-69
2023/09/05 11:34:42;;;;;;;;;;;25.60;99.90;;;;;;5046129;28;19962;-69
2023/09/05 11:37:07;;;;;;;;;;;25.70;99.90;;;;;;5049121;28;19924;-70
2023/09/05 11:39:33;;;;;;;;;;;25.70;99.90;;;;;;5045988;28;19927;-70
2023/09/05 11:41:59;;;;;;;;;;;25.80;99.90;;;;;;5065632;28;19924;-69
2023/09/05 11:44:37;;;;;;;;;;;25.80;99.90;;;;;;5050655;28;19916;-70
2023/09/05 11:47:03;;;;;;;;;;;25.80;99.90;;;;;;5047308;28;20485;-70
2023/09/05 11:49:28;;;;;;;;;;;25.90;99.90;;;;;;5066763;28;19971;-70
2023/09/05 11:51:54;;;;;;;;;;;25.90;99.90;;;;;;5048464;28;19970;-70
2023/09/05 11:54:20;;;;;;;;;;;26.00;99.90;;;;;;5049872;28;19916;-69
2023/09/05 11:56:45;;;;;;;;;;;26.00;99.90;;;;;;5040395;28;19921;-69
2023/09/05 11:59:11;;;;;;;;;;;26.00;99.90;;;;;;5048871;28;19917;-69
2023/09/05 12:01:36;;;;;;;;;;;26.10;99.90;;;;;;5046797;28;19924;-70
2023/09/05 12:04:05;;;;;;;;;;;26.00;99.90;;;;;;5049288;28;19968;-70
2023/09/05 12:06:36;;;;;;;;;;;26.10;99.90;;;;;;5047659;28;19923;-70
2023/09/05 12:09:02;;;;;;;;;;;26.20;99.90;;;;;;5067025;28;19917;-70
2023/09/05 12:11:27;;;;;;;;;;;26.20;99.90;;;;;;5046203;28;19947;-69
2023/09/05 12:13:57;;;;;;;;;;;26.20;99.90;;;;;;5049812;28;20066;-69
2023/09/05 12:16:23;;;;;;;;;;;26.20;99.90;;;;;;5044063;28;20411;-69
2023/09/05 12:18:56;;;;;;;;;;;26.30;99.90;;;;;;5044665;28;19927;-69
2023/09/05 12:21:22;;;;;;;;;;;26.30;99.90;;;;;;5049386;28;20360;-69
2023/09/05 12:23:48;;;;;;;;;;;26.30;99.90;;;;;;5050954;28;19928;-70
2023/09/05 12:26:14;;;;;;;;;;;26.30;99.90;;;;;;5046631;28;20311;-69
2023/09/05 12:28:40;;;;;;;;;;;26.40;99.90;;;;;;5049721;28;19917;-69
2023/09/05 12:31:10;;;;;;;;;;;26.40;99.90;;;;;;5050048;28;20427;-69
2023/09/05 12:33:36;;;;;;;;;;;26.40;99.90;;;;;;5049259;28;20028;-69
2023/09/05 12:36:01;;;;;;;;;;;26.50;99.90;;;;;;5046624;28;19956;-69
2023/09/05 12:38:30;;;;;;;;;;;26.50;99.90;;;;;;5049801;28;19924;-69
2023/09/05 12:40:57;;;;;;;;;;;26.50;99.90;;;;;;5044355;28;19921;-70
2023/09/05 12:43:23;;;;;;;;;;;26.60;99.90;;;;;;5048542;28;19927;-69
2023/09/05 12:45:52;;;;;;;;;;;26.60;99.90;;;;;;5044610;28;19928;-69
2023/09/05 12:48:17;;;;;;;;;;;26.60;99.90;;;;;;5045810;28;19974;-69
2023/09/05 12:50:45;;;;;;;;;;;26.70;99.90;;;;;;5047934;28;20001;-70
2023/09/05 12:53:10;;;;;;;;;;;26.60;99.90;;;;;;5046815;28;19931;-69
2023/09/05 12:55:37;;;;;;;;;;;26.60;99.90;;;;;;5045848;28;20391;-70
2023/09/05 12:58:03;;;;;;;;;;;26.60;99.90;;;;;;5048768;28;20386;-69
2023/09/05 13:00:29;;;;;;;;;;;26.60;99.90;;;;;;5082408;28;19924;-69
2023/09/05 13:02:55;;;;;;;;;;;26.70;99.90;;;;;;5041779;28;19917;-69
2023/09/05 13:05:20;;;;;;;;;;;26.70;99.90;;;;;;5039113;28;19923;-69
2023/09/05 13:07:46;;;;;;;;;;;26.70;99.90;;;;;;5048762;28;20359;-69
2023/09/05 13:10:11;;;;;;;;;;;26.70;99.90;;;;;;5047710;28;20283;-70
2023/09/05 13:12:37;;;;;;;;;;;26.70;99.90;;;;;;5046168;28;19921;-69
2023/09/05 13:15:03;;;;;;;;;;;26.70;99.90;;;;;;5051265;28;20019;-69
2023/09/05 13:17:29;;;;;;;;;;;26.70;99.90;;;;;;5046180;28;19921;-70
2023/09/05 13:19:55;;;;;;;;;;;26.80;99.90;;;;;;5047443;28;19925;-70
2023/09/05 13:22:20;;;;;;;;;;;26.80;99.90;;;;;;5043316;28;19928;-69
2023/09/05 13:24:46;;;;;;;;;;;26.80;99.90;;;;;;5043256;28;20315;-69
2023/09/05 13:27:14;;;;;;;;;;;26.80;99.90;;;;;;5046509;28;19921;-69
2023/09/05 13:29:40;;;;;;;;;;;26.80;99.90;;;;;;5047859;28;20359;-69
2023/09/05 13:32:08;;;;;;;;;;;26.80;99.90;;;;;;5039214;28;19922;-70
2023/09/05 13:34:34;;;;;;;;;;;26.90;99.90;;;;;;5080967;28;20417;-69
2023/09/05 13:37:00;;;;;;;;;;;26.90;99.90;;;;;;5047295;28;19925;-69
2023/09/05 13:39:26;;;;;;;;;;;26.90;99.90;;;;;;5044336;28;19999;-70
2023/09/05 13:41:55;;;;;;;;;;;26.90;99.90;;;;;;5046916;28;19923;-69
2023/09/05 13:44:20;;;;;;;;;;;27.00;99.90;;;;;;5046992;28;19924;-69
2023/09/05 13:46:47;;;;;;;;;;;27.00;99.90;;;;;;5042698;28;19925;-69
2023/09/05 13:49:13;;;;;;;;;;;27.00;99.90;;;;;;5035819;28;20279;-69
2023/09/05 13:51:38;;;;;;;;;;;27.00;99.90;;;;;;5035083;28;19923;-69
2023/09/05 13:54:05;;;;;;;;;;;27.00;99.90;;;;;;5045368;28;20325;-69
2023/09/05 13:56:31;;;;;;;;;;;27.00;99.90;;;;;;5044489;28;19932;-69
2023/09/05 13:58:56;;;;;;;;;;;27.00;99.90;;;;;;5049361;28;20379;-69
2023/09/05 14:01:22;;;;;;;;;;;27.00;99.90;;;;;;5046337;28;19928;-69
2023/09/05 14:03:48;;;;;;;;;;;27.00;99.90;;;;;;5047558;28;19916;-69
2023/09/05 14:06:14;;;;;;;;;;;27.00;99.90;;;;;;5046270;28;20287;-69
2023/09/05 14:08:40;;;;;;;;;;;27.10;99.90;;;;;;5040722;28;19920;-69
2023/09/05 14:11:06;;;;;;;;;;;27.10;99.90;;;;;;5045516;28;20395;-70
2023/09/05 14:13:32;;;;;;;;;;;27.10;99.90;;;;;;5030783;28;20010;-69